createdAt,value
2022-11-22T00:00:55.871Z,106.17
2022-11-22T00:03:23.846Z,101.67
2022-11-22T00:05:53.258Z,112.27
2022-11-22T00:08:21.414Z,111.70
2022-11-22T00:10:50.199Z,112.80
2022-11-22T00:13:18.362Z,105.33
2022-11-22T00:15:46.520Z,100.27
2022-11-22T00:18:14.477Z,102.43
2022-11-22T00:20:42.464Z,100.07
2022-11-22T00:23:11.821Z,106.83
2022-11-22T00:25:39.755Z,128.40
2022-11-22T00:28:07.730Z,116.80
2022-11-22T00:30:35.888Z,109.70
2022-11-22T00:33:04.063Z,107.60
2022-11-22T00:35:32.168Z,99.90
2022-11-22T00:38:00.126Z,109.40
2022-11-22T00:40:29.472Z,141.87
2022-11-22T00:42:57.436Z,102.30
2022-11-22T00:45:25.429Z,97.43
2022-11-22T00:47:53.400Z,99.40
2022-11-22T00:50:21.366Z,113.93
2022-11-22T00:52:49.329Z,140.57
2022-11-22T00:55:17.402Z,114.10
2022-11-22T00:57:46.749Z,132.47
2022-11-22T01:00:15.317Z,139.50
2022-11-22T01:02:43.350Z,172.07
2022-11-22T01:05:11.448Z,149.10
2022-11-22T01:07:39.492Z,123.43
2022-11-22T01:10:08.300Z,245.30
2022-11-22T01:12:36.740Z,115.47
2022-11-22T01:15:07.436Z,136.97
2022-11-22T01:17:35.403Z,102.90
2022-11-22T01:20:03.724Z,181.63
2022-11-22T01:22:31.763Z,224.07
2022-11-22T01:24:59.751Z,141.87
2022-11-22T01:27:27.704Z,226.17
2022-11-22T01:29:55.662Z,196.50
2022-11-22T01:32:25.057Z,95.13
2022-11-22T01:34:53.050Z,124.27
2022-11-22T01:37:21.079Z,103.33
2022-11-22T01:39:49.044Z,148.37
2022-11-22T01:42:17.017Z,224.30
2022-11-22T01:44:45.511Z,194.27
2022-11-22T01:47:15.395Z,202.07
2022-11-22T01:49:48.589Z,228.90
2022-11-22T01:52:20.199Z,170.40
2022-11-22T01:54:54.044Z,175.23
2022-11-22T01:57:27.719Z,109.00
2022-11-22T02:00:02.517Z,141.37
2022-11-22T02:02:30.610Z,176.20
2022-11-22T02:05:03.577Z,146.30
2022-11-22T02:07:36.779Z,217.87
2022-11-22T02:10:05.502Z,154.40
2022-11-22T02:12:36.443Z,142.40
2022-11-22T02:15:05.220Z,209.17
2022-11-22T02:17:33.189Z,231.90
2022-11-22T02:20:02.706Z,257.93
2022-11-22T02:22:37.257Z,141.87
2022-11-22T02:25:10.145Z,234.47
2022-11-22T02:27:39.687Z,204.97
2022-11-22T02:30:08.755Z,128.37
2022-11-22T02:32:36.756Z,188.67
2022-11-22T02:35:18.624Z,185.80
2022-11-22T02:37:47.026Z,157.50
2022-11-22T02:40:17.275Z,188.43
2022-11-22T02:42:51.773Z,198.63
2022-11-22T02:45:19.798Z,250.33
2022-11-22T02:47:47.793Z,185.37
2022-11-22T02:50:16.071Z,161.57
2022-11-22T02:52:44.102Z,252.73
2022-11-22T02:55:12.253Z,207.87
2022-11-22T02:57:40.210Z,158.57
2022-11-22T03:00:11.424Z,291.20
2022-11-22T03:02:39.350Z,178.70
2022-11-22T03:05:07.606Z,133.13
2022-11-22T03:07:35.644Z,145.67
2022-11-22T03:10:03.623Z,153.97
2022-11-22T03:12:31.623Z,179.60
2022-11-22T03:14:59.612Z,123.07
2022-11-22T03:17:28.927Z,156.40
2022-11-22T03:19:56.925Z,135.07
2022-11-22T03:22:24.886Z,124.90
2022-11-22T03:24:52.875Z,342.93
2022-11-22T03:27:20.859Z,179.83
2022-11-22T03:29:48.803Z,240.73
2022-11-22T03:32:16.783Z,195.40
2022-11-22T03:34:46.124Z,112.13
2022-11-22T03:37:14.118Z,264.73
2022-11-22T03:39:42.084Z,143.63
2022-11-22T03:42:10.064Z,149.10
2022-11-22T03:44:38.016Z,162.23
2022-11-22T03:47:06.081Z,276.43
2022-11-22T03:49:34.052Z,287.07
2022-11-22T03:52:03.382Z,221.50
2022-11-22T03:54:31.338Z,288.20
2022-11-22T03:56:59.337Z,229.37
2022-11-22T03:59:27.398Z,132.13
2022-11-22T04:01:55.732Z,154.87
2022-11-22T04:04:24.061Z,166.30
2022-11-22T04:06:52.056Z,143.23
2022-11-22T04:09:21.489Z,111.77
2022-11-22T04:11:49.575Z,108.27
2022-11-22T04:14:35.167Z,135.90
2022-11-22T04:17:03.140Z,194.40
2022-11-22T04:19:31.168Z,157.40
2022-11-22T04:21:58.352Z,157.17
2022-11-22T04:24:45.331Z,114.57
2022-11-22T04:27:13.320Z,150.70
2022-11-22T04:29:41.298Z,109.30
2022-11-22T04:32:27.820Z,186.60
2022-11-22T04:34:55.852Z,153.50
2022-11-22T04:37:23.840Z,185.30
2022-11-22T04:39:53.160Z,172.10
2022-11-22T04:42:38.679Z,110.57
2022-11-22T04:45:08.072Z,149.17
2022-11-22T04:47:53.456Z,134.73
2022-11-22T04:50:38.781Z,155.57
2022-11-22T04:53:06.776Z,101.13
2022-11-22T04:55:36.124Z,155.63
2022-11-22T04:58:04.198Z,104.70
2022-11-22T05:00:32.989Z,108.83
2022-11-22T05:03:01.347Z,90.67
2022-11-22T05:05:29.509Z,110.50
2022-11-22T05:07:59.012Z,93.90
2022-11-22T05:10:27.392Z,94.30
2022-11-22T05:12:57.274Z,89.63
2022-11-22T05:15:25.388Z,84.60
2022-11-22T05:17:53.415Z,90.37
2022-11-22T05:20:21.425Z,86.53
2022-11-22T05:23:07.037Z,92.20
2022-11-22T05:25:35.018Z,87.77
2022-11-22T05:28:04.564Z,80.43
2022-11-22T05:30:32.554Z,81.03
2022-11-22T05:33:00.511Z,79.73
2022-11-22T05:35:31.260Z,83.20
2022-11-22T05:37:59.553Z,83.13
2022-11-22T05:40:27.954Z,79.27
2022-11-22T05:42:55.915Z,78.20
2022-11-22T05:45:25.242Z,89.50
2022-11-22T05:47:53.203Z,72.73
2022-11-22T05:50:21.185Z,73.93
2022-11-22T05:52:49.192Z,82.43
2022-11-22T05:55:17.351Z,74.03
2022-11-22T05:57:45.303Z,73.23
2022-11-22T06:00:13.988Z,76.67
2022-11-22T06:02:43.334Z,76.03
2022-11-22T06:05:11.409Z,71.93
2022-11-22T06:07:39.530Z,75.40
2022-11-22T06:10:08.345Z,79.10
2022-11-22T06:12:36.881Z,77.03
2022-11-22T06:15:07.326Z,75.30
2022-11-22T06:17:35.274Z,80.03
2022-11-22T06:20:06.644Z,76.67
2022-11-22T06:22:34.961Z,69.07
2022-11-22T06:25:03.020Z,73.37
2022-11-22T06:27:31.392Z,70.53
2022-11-22T06:29:59.465Z,76.30
2022-11-22T06:32:27.428Z,70.83
2022-11-22T06:34:55.416Z,73.03
2022-11-22T06:37:24.787Z,74.80
2022-11-22T06:39:52.991Z,69.53
2022-11-22T06:42:20.975Z,77.50
2022-11-22T06:44:48.971Z,72.37
2022-11-22T06:47:17.573Z,73.03
2022-11-22T06:49:46.191Z,66.80
2022-11-22T06:52:14.142Z,71.40
2022-11-22T06:54:43.508Z,63.63
2022-11-22T06:57:14.629Z,72.50
2022-11-22T06:59:43.169Z,70.87
2022-11-22T07:02:12.929Z,78.17
2022-11-22T07:05:02.198Z,81.17
2022-11-22T07:07:28.977Z,86.50
2022-11-22T07:09:58.340Z,90.27
2022-11-22T07:12:26.890Z,82.47
2022-11-22T07:14:54.862Z,85.97
2022-11-22T07:17:22.884Z,85.97
2022-11-22T07:19:50.899Z,94.93
2022-11-22T07:22:18.854Z,96.70
2022-11-22T07:24:46.807Z,94.70
2022-11-22T07:27:16.260Z,89.97
2022-11-22T07:29:44.279Z,82.47
2022-11-22T07:32:12.352Z,78.53
2022-11-22T07:34:40.287Z,72.80
2022-11-22T07:37:09.366Z,68.03
2022-11-22T07:39:37.574Z,77.60
2022-11-22T07:42:05.659Z,79.67
2022-11-22T07:44:35.037Z,73.63
2022-11-22T07:47:03.039Z,74.07
2022-11-22T07:49:31.248Z,70.47
2022-11-22T07:52:00.048Z,78.00
2022-11-22T07:54:28.036Z,82.73
2022-11-22T07:56:56.024Z,78.17
2022-11-22T07:59:24.038Z,85.20
2022-11-22T08:01:53.417Z,79.90
2022-11-22T08:04:21.412Z,84.27
2022-11-22T08:06:49.414Z,87.20
2022-11-22T08:09:17.392Z,84.23
2022-11-22T08:11:45.368Z,82.63
2022-11-22T08:14:13.461Z,85.03
2022-11-22T08:16:41.444Z,85.67
2022-11-22T08:19:15.913Z,84.87
2022-11-22T08:21:44.060Z,81.33
2022-11-22T08:24:12.324Z,87.20
2022-11-22T08:26:40.402Z,76.67
2022-11-22T08:29:14.097Z,79.60
2022-11-22T08:31:42.688Z,79.97
2022-11-22T08:34:12.108Z,79.70
2022-11-22T08:36:40.094Z,85.53
2022-11-22T08:39:08.239Z,85.83
2022-11-22T08:41:36.343Z,85.07
2022-11-22T08:44:04.827Z,78.77
2022-11-22T08:46:32.885Z,78.90
2022-11-22T08:49:03.807Z,79.23
2022-11-22T08:51:33.838Z,87.40
2022-11-22T08:54:01.793Z,75.27
2022-11-22T08:56:29.882Z,87.40
2022-11-22T08:58:57.956Z,82.00
2022-11-22T09:01:26.047Z,84.67
2022-11-22T09:03:54.162Z,83.27
2022-11-22T09:12:00.418Z,81.20
2022-11-22T09:14:28.450Z,71.83
2022-11-22T09:16:58.472Z,72.40
2022-11-22T09:19:26.498Z,81.37
2022-11-22T09:21:54.493Z,74.07
2022-11-22T09:24:23.853Z,73.27
2022-11-22T09:26:51.872Z,79.17
2022-11-22T09:29:19.881Z,85.47
2022-11-22T09:31:47.888Z,78.73
2022-11-22T09:34:15.878Z,80.97
2022-11-22T09:36:43.981Z,65.33
2022-11-22T09:39:12.502Z,58.17
2022-11-22T09:42:10.668Z,57.93
2022-11-22T09:44:48.108Z,59.33
2022-11-22T09:47:26.315Z,54.80
2022-11-22T09:50:06.363Z,58.23
2022-11-22T09:52:51.261Z,56.42
2022-11-22T09:55:24.672Z,53.80
2022-11-22T09:58:07.225Z,53.47
2022-11-22T10:00:36.521Z,54.67
2022-11-22T10:03:09.813Z,48.67
2022-11-22T10:05:48.903Z,51.20
2022-11-22T10:08:28.874Z,48.50
2022-11-22T10:10:59.619Z,39.23
2022-11-22T10:13:35.240Z,38.97
2022-11-22T10:16:11.736Z,33.67
2022-11-22T10:18:44.691Z,36.00
2022-11-22T10:21:14.227Z,34.23
2022-11-22T10:23:43.161Z,33.97
2022-11-22T10:26:22.134Z,29.63
2022-11-22T10:29:04.779Z,27.73
2022-11-22T10:31:40.335Z,27.83
2022-11-22T10:34:16.378Z,27.17
2022-11-22T10:36:51.132Z,30.60
2022-11-22T10:39:32.961Z,28.77
2022-11-22T10:42:25.417Z,29.43
2022-11-22T10:45:04.662Z,24.90
2022-11-22T10:47:47.670Z,26.13
2022-11-22T10:50:21.542Z,28.03
2022-11-22T10:52:59.889Z,23.10
2022-11-22T10:55:45.819Z,26.37
2022-11-22T10:58:21.324Z,21.73
2022-11-22T11:00:59.825Z,20.23
2022-11-22T11:03:31.517Z,18.43
2022-11-22T11:06:29.657Z,15.63
2022-11-22T11:11:48.127Z,18.27
2022-11-22T11:14:26.728Z,16.53
2022-11-22T11:16:56.449Z,13.90
2022-11-22T11:19:25.962Z,15.87
2022-11-22T11:22:00.420Z,13.27
2022-11-22T11:24:31.332Z,16.57
2022-11-22T11:27:01.577Z,16.20
2022-11-22T11:29:43.926Z,18.33
2022-11-22T11:32:15.335Z,17.47
2022-11-22T11:34:51.915Z,13.30
2022-11-22T11:37:26.773Z,16.27
2022-11-22T11:39:54.893Z,14.53
2022-11-22T11:42:29.059Z,14.17
2022-11-22T11:45:21.917Z,15.50
2022-11-22T11:47:51.294Z,15.07
2022-11-22T11:50:24.206Z,14.63
2022-11-22T11:52:55.324Z,21.60
2022-11-22T11:55:23.619Z,17.43
2022-11-22T11:57:53.553Z,18.53
2022-11-22T12:00:26.826Z,20.03
2022-11-22T12:03:01.548Z,19.70
2022-11-22T12:05:31.600Z,22.20
2022-11-22T12:08:01.168Z,15.00
2022-11-22T12:10:35.101Z,25.53
2022-11-22T12:13:09.084Z,19.07
2022-11-22T12:15:45.006Z,24.97
2022-11-22T12:18:31.791Z,16.93
2022-11-22T12:21:08.866Z,22.20
2022-11-22T12:23:50.615Z,18.17
2022-11-22T12:26:19.543Z,17.97
2022-11-22T12:28:48.411Z,16.87
2022-11-22T12:31:26.481Z,18.23
2022-11-22T12:33:59.698Z,17.63
2022-11-22T12:36:34.275Z,14.90
2022-11-22T12:39:05.281Z,18.03
2022-11-22T12:41:36.136Z,15.13
2022-11-22T12:44:06.304Z,19.17
2022-11-22T12:46:40.153Z,15.17
2022-11-22T12:49:16.505Z,17.57
2022-11-22T12:51:48.758Z,16.07
2022-11-22T12:54:21.044Z,15.97
2022-11-22T12:56:53.061Z,18.97
2022-11-22T12:59:29.341Z,15.90
2022-11-22T13:02:05.968Z,19.57
2022-11-22T13:04:45.311Z,16.03
2022-11-22T13:07:20.006Z,16.53
2022-11-22T13:09:54.720Z,18.40
2022-11-22T13:12:28.224Z,17.53
2022-11-22T13:14:57.167Z,17.73
2022-11-22T13:17:27.202Z,16.87
2022-11-22T13:20:04.268Z,17.00
2022-11-22T13:22:41.772Z,16.10
2022-11-22T13:25:33.649Z,17.17
2022-11-22T13:28:06.611Z,18.53
2022-11-22T13:30:37.157Z,23.73
2022-11-22T13:33:05.236Z,24.33
2022-11-22T13:35:36.308Z,22.03
2022-11-22T13:38:07.078Z,24.23
2022-11-22T13:40:37.618Z,31.50
2022-11-22T13:43:52.592Z,26.97
2022-11-22T13:46:55.327Z,19.63
2022-11-22T13:49:38.935Z,26.43
2022-11-22T13:52:35.088Z,24.27
2022-11-22T13:55:28.313Z,21.37
2022-11-22T13:57:56.499Z,25.70
2022-11-22T14:00:48.436Z,22.93
2022-11-22T14:03:35.007Z,22.37
2022-11-22T14:06:26.867Z,22.20
2022-11-22T14:09:26.393Z,22.77
2022-11-22T14:12:07.577Z,19.83
2022-11-22T14:14:42.041Z,26.20
2022-11-22T14:17:22.943Z,22.60
2022-11-22T14:20:03.554Z,23.23
2022-11-22T14:22:44.698Z,23.80
2022-11-22T14:25:40.502Z,25.93
2022-11-22T14:28:18.974Z,27.90
2022-11-22T14:30:54.174Z,29.57
2022-11-22T14:33:24.305Z,28.60
2022-11-22T14:36:15.115Z,26.20
2022-11-22T14:38:43.537Z,25.07
2022-11-22T14:41:41.623Z,26.90
2022-11-22T14:44:15.526Z,29.20
2022-11-22T14:46:53.853Z,26.97
2022-11-22T14:49:31.791Z,26.07
2022-11-22T14:52:00.528Z,29.50
2022-11-22T14:54:31.792Z,30.00
2022-11-22T14:57:06.614Z,31.07
2022-11-22T14:59:58.010Z,33.17
2022-11-22T15:03:10.844Z,36.93
2022-11-22T15:09:14.150Z,38.33
2022-11-22T15:09:19.189Z,35.37
2022-11-22T15:12:14.346Z,44.73
2022-11-22T15:57:27.982Z,57.87
2022-11-22T15:59:56.669Z,60.07
2022-11-22T16:02:29.795Z,53.20
2022-11-22T16:06:04.526Z,62.50
2022-11-22T16:07:50.458Z,61.73
2022-11-22T16:10:22.773Z,60.77
2022-11-22T16:12:51.904Z,61.10
2022-11-22T16:15:29.759Z,67.07
2022-11-22T16:18:08.013Z,65.87
2022-11-22T16:20:37.121Z,66.00
2022-11-22T16:23:26.508Z,62.43
2022-11-22T16:25:58.399Z,62.23
2022-11-22T16:28:32.604Z,66.63
2022-11-22T16:31:03.771Z,61.33
2022-11-22T16:33:33.701Z,60.07
2022-11-22T16:36:02.985Z,60.40
2022-11-22T16:38:31.265Z,60.53
2022-11-22T16:41:00.257Z,57.23
2022-11-22T16:43:35.273Z,59.53
2022-11-22T16:46:03.682Z,60.67
2022-11-22T16:48:33.732Z,55.73
2022-11-22T16:51:05.437Z,55.17
2022-11-22T16:53:41.231Z,53.67
2022-11-22T16:56:10.008Z,56.80
2022-11-22T16:58:38.008Z,58.43
2022-11-22T17:01:06.333Z,58.33
2022-11-22T17:03:39.400Z,53.67
2022-11-22T17:06:07.790Z,53.73
2022-11-22T17:08:35.760Z,57.97
2022-11-22T17:11:03.816Z,63.30
2022-11-22T17:13:31.841Z,62.90
2022-11-22T17:15:59.854Z,54.83
2022-11-22T17:18:27.895Z,55.60
2022-11-22T17:20:57.360Z,57.13
2022-11-22T17:23:30.283Z,59.07
2022-11-22T17:25:58.407Z,68.17
2022-11-22T17:28:26.763Z,59.67
2022-11-22T17:30:55.203Z,58.13
2022-11-22T17:33:24.935Z,56.43
2022-11-22T17:35:53.568Z,55.47
2022-11-22T17:38:23.152Z,55.97
2022-11-22T17:40:51.284Z,55.73
2022-11-22T17:43:19.350Z,54.00
2022-11-22T17:45:47.413Z,54.43
2022-11-22T17:48:17.364Z,46.93
2022-11-22T17:50:45.870Z,50.20
2022-11-22T17:53:13.869Z,43.73
2022-11-22T17:56:09.114Z,41.77
2022-11-22T17:58:31.824Z,41.03
2022-11-22T18:01:07.297Z,46.07
2022-11-22T18:03:35.926Z,42.47
2022-11-22T18:06:04.287Z,46.93
2022-11-22T18:08:33.185Z,45.37
2022-11-22T18:11:03.459Z,44.13
2022-11-22T18:13:33.021Z,47.57
2022-11-22T18:16:03.698Z,51.03
2022-11-22T18:21:20.173Z,42.47
2022-11-22T18:23:48.172Z,43.50
2022-11-22T18:31:54.604Z,48.43
2022-11-22T18:34:23.318Z,47.63
2022-11-22T18:37:07.220Z,49.50
2022-11-22T18:42:26.274Z,41.73
2022-11-22T18:44:54.254Z,47.43
2022-11-22T18:47:22.240Z,44.67
2022-11-22T18:49:50.804Z,51.33
2022-11-22T18:52:18.754Z,49.50
2022-11-22T18:54:46.733Z,45.73
2022-11-22T18:57:14.726Z,47.80
2022-11-22T18:59:44.077Z,51.30
2022-11-22T19:02:12.174Z,53.60
2022-11-22T19:04:40.110Z,53.83
2022-11-22T19:07:08.120Z,51.93
2022-11-22T19:09:36.073Z,55.53
2022-11-22T19:12:04.219Z,52.03
2022-11-22T19:14:32.353Z,53.67
2022-11-22T19:17:01.859Z,51.60
2022-11-22T19:19:32.209Z,49.00
2022-11-22T19:22:00.268Z,51.37
2022-11-22T19:24:28.752Z,47.90
2022-11-22T19:26:57.195Z,54.97
2022-11-22T19:29:25.241Z,52.40
2022-11-22T19:31:53.199Z,55.67
2022-11-22T19:34:22.523Z,55.20
2022-11-22T19:36:50.491Z,52.90
2022-11-22T19:39:19.922Z,49.57
2022-11-22T19:41:47.877Z,50.33
2022-11-22T19:44:15.826Z,52.50
2022-11-22T19:46:43.788Z,50.80
2022-11-22T19:49:11.809Z,56.50
2022-11-22T19:51:41.164Z,53.70
2022-11-22T19:54:09.210Z,58.10
2022-11-22T19:56:38.945Z,55.07
2022-11-22T19:59:10.322Z,49.73
2022-11-22T20:01:39.662Z,62.57
2022-11-22T20:04:08.294Z,60.23
2022-11-22T20:06:37.288Z,59.97
2022-11-22T20:09:09.235Z,58.87
2022-11-22T20:11:37.650Z,59.73
2022-11-22T20:14:05.639Z,58.47
2022-11-22T20:16:34.754Z,60.57
2022-11-22T20:19:04.571Z,62.23
2022-11-22T20:21:33.744Z,64.30
2022-11-22T20:24:02.447Z,58.77
2022-11-22T20:26:33.045Z,59.17
2022-11-22T20:29:03.392Z,55.17
2022-11-22T20:31:32.943Z,65.43
2022-11-22T20:34:02.396Z,57.60
2022-11-22T20:36:32.514Z,60.17
2022-11-22T20:39:05.381Z,58.30
2022-11-22T20:41:38.247Z,61.23
2022-11-22T20:44:06.543Z,57.83
2022-11-22T20:46:37.263Z,54.07
2022-11-22T20:49:05.282Z,54.40
2022-11-22T20:51:35.903Z,50.77
2022-11-22T20:54:03.920Z,57.27
2022-11-22T20:56:31.943Z,48.83
2022-11-22T20:59:01.365Z,51.40
2022-11-22T21:01:31.555Z,49.43
2022-11-22T21:03:59.589Z,52.20
2022-11-22T21:06:28.859Z,49.17
2022-11-22T21:08:57.231Z,50.03
2022-11-22T21:11:26.677Z,47.00
2022-11-22T21:13:56.139Z,42.70
2022-11-22T21:16:26.542Z,46.70
2022-11-22T21:18:56.341Z,44.03
2022-11-22T21:21:25.816Z,43.60
2022-11-22T21:23:55.814Z,45.70
2022-11-22T21:26:25.407Z,43.37
2022-11-22T21:28:54.016Z,43.97
2022-11-22T21:31:23.369Z,44.87
2022-11-22T21:33:53.654Z,43.67
2022-11-22T21:36:22.397Z,50.03
2022-11-22T21:38:50.493Z,54.77
2022-11-22T21:44:07.953Z,48.77
2022-11-22T21:46:35.892Z,53.30
2022-11-22T21:49:05.256Z,51.53
2022-11-22T21:51:33.216Z,51.83
2022-11-22T21:54:02.321Z,54.50
2022-11-22T21:56:31.563Z,50.40
2022-11-22T21:58:59.883Z,51.77
2022-11-22T22:01:28.424Z,52.00
2022-11-22T22:03:56.461Z,55.83
2022-11-22T22:06:26.117Z,56.23
2022-11-22T22:08:54.201Z,55.87
2022-11-22T22:11:22.309Z,62.80
2022-11-22T22:13:50.408Z,63.07
2022-11-22T22:16:22.870Z,63.50
2022-11-22T22:18:51.533Z,61.77
2022-11-22T22:21:21.173Z,67.03
2022-11-22T22:23:50.554Z,75.57
2022-11-22T22:26:18.984Z,73.40
2022-11-22T22:28:47.481Z,74.13
2022-11-22T22:31:17.544Z,73.43
2022-11-22T22:33:46.573Z,77.00
2022-11-22T22:36:14.622Z,67.20
2022-11-22T22:38:42.599Z,74.27
2022-11-22T22:41:14.373Z,68.17
2022-11-22T22:43:45.045Z,71.67
2022-11-22T22:46:15.204Z,76.67
2022-11-22T22:48:44.049Z,85.40
2022-11-22T22:51:14.261Z,71.23
2022-11-22T22:53:42.945Z,77.67
2022-11-22T22:56:13.815Z,75.50
2022-11-22T22:58:42.254Z,73.73
2022-11-22T23:01:13.794Z,77.73
2022-11-22T23:03:41.955Z,75.17
2022-11-22T23:06:11.965Z,66.93
2022-11-22T23:08:40.707Z,60.77
2022-11-22T23:11:12.760Z,66.10
2022-11-22T23:13:42.546Z,67.07
2022-11-22T23:16:12.177Z,69.07
2022-11-22T23:18:42.077Z,68.20
2022-11-22T23:21:13.008Z,62.83
2022-11-22T23:23:40.963Z,68.10
2022-11-22T23:26:11.030Z,64.73
2022-11-22T23:28:40.365Z,60.20
2022-11-22T23:31:10.144Z,67.27
2022-11-22T23:33:38.164Z,70.00
2022-11-22T23:36:08.316Z,80.83
2022-11-22T23:38:36.441Z,76.67
2022-11-22T23:41:04.747Z,73.87
2022-11-22T23:43:33.027Z,81.43
2022-11-22T23:46:02.367Z,76.20
2022-11-22T23:48:30.367Z,71.70
2022-11-22T23:51:03.729Z,72.73
2022-11-22T23:53:31.686Z,66.80
2022-11-22T23:56:05.958Z,65.60
2022-11-22T23:58:33.997Z,70.07
